createdAt,value
2023-01-23T00:01:41.916Z,97699.50
2023-01-23T00:04:11.559Z,97714.28
2023-01-23T00:06:40.865Z,97648.66
2023-01-23T00:09:09.633Z,97662.50
2023-01-23T00:11:37.820Z,97631.53
2023-01-23T00:14:07.432Z,97680.31
2023-01-23T00:16:35.641Z,97627.13
2023-01-23T00:19:04.033Z,97688.38
2023-01-23T00:21:32.665Z,97724.22
2023-01-23T00:24:02.504Z,97689.38
2023-01-23T00:26:33.835Z,97679.69
2023-01-23T00:29:02.164Z,97683.69
2023-01-23T00:31:35.138Z,97709.84
2023-01-23T00:34:06.285Z,97624.59
2023-01-23T00:36:36.850Z,97675.38
2023-01-23T00:39:09.603Z,97661.16
2023-01-23T00:41:37.812Z,97721.72
2023-01-23T00:44:06.171Z,97713.19
2023-01-23T00:46:35.828Z,97645.00
2023-01-23T00:49:04.661Z,97692.41
2023-01-23T00:51:33.590Z,97707.03
2023-01-23T00:54:02.700Z,97688.84
2023-01-23T00:56:31.090Z,97706.91
2023-01-23T00:58:59.393Z,97705.50
2023-01-23T01:01:29.011Z,97720.31
2023-01-23T01:03:59.547Z,97701.00
2023-01-23T01:06:29.760Z,97583.03
2023-01-23T01:08:59.683Z,97726.19
2023-01-23T01:11:28.504Z,97703.94
2023-01-23T01:14:01.392Z,97734.66
2023-01-23T01:16:36.191Z,97681.31
2023-01-23T01:19:06.069Z,97709.41
2023-01-23T01:21:35.883Z,97732.41
2023-01-23T01:24:04.220Z,97733.91
2023-01-23T01:26:32.578Z,97749.28
2023-01-23T01:29:00.844Z,97723.69
2023-01-23T01:31:29.189Z,97742.69
2023-01-23T01:33:57.399Z,97687.34
2023-01-23T01:36:27.503Z,97683.13
2023-01-23T01:38:55.719Z,97742.28
2023-01-23T01:41:28.483Z,97717.44
2023-01-23T01:43:57.474Z,97763.75
2023-01-23T01:46:27.698Z,97703.53
2023-01-23T01:49:12.507Z,97763.03
2023-01-23T01:51:55.792Z,97702.69
2023-01-23T01:54:28.603Z,97755.00
2023-01-23T01:57:01.605Z,97747.59
2023-01-23T01:59:33.541Z,97748.38
2023-01-23T02:02:08.032Z,97729.75
2023-01-23T02:04:40.159Z,97733.63
2023-01-23T02:07:18.443Z,97743.81
2023-01-23T02:09:47.413Z,97736.34
2023-01-23T02:12:15.631Z,97740.94
2023-01-23T02:14:44.211Z,97716.53
2023-01-23T02:17:12.791Z,97691.94
2023-01-23T02:19:49.329Z,97698.94
2023-01-23T02:22:38.442Z,97697.41
2023-01-23T02:25:16.424Z,97770.13
2023-01-23T02:27:48.581Z,97738.91
2023-01-23T02:30:18.707Z,97742.41
2023-01-23T02:32:47.366Z,97762.22
2023-01-23T02:35:21.641Z,97794.59
2023-01-23T02:37:53.986Z,97779.75
2023-01-23T02:40:32.871Z,97771.53
2023-01-23T02:43:04.416Z,97735.31
2023-01-23T02:45:33.147Z,97761.19
2023-01-23T02:48:01.816Z,97731.09
2023-01-23T02:50:39.321Z,97762.69
2023-01-23T02:53:08.470Z,97702.97
2023-01-23T02:55:39.349Z,97768.28
2023-01-23T02:58:23.202Z,97750.66
2023-01-23T03:00:51.928Z,97755.84
2023-01-23T03:03:20.141Z,97715.56
2023-01-23T03:05:48.745Z,97723.41
2023-01-23T03:08:17.189Z,97750.06
2023-01-23T03:10:45.738Z,97739.53
2023-01-23T03:13:15.322Z,97753.66
2023-01-23T03:15:44.794Z,97689.13
2023-01-23T03:18:13.282Z,97722.91
2023-01-23T03:20:42.777Z,97741.72
2023-01-23T03:23:10.978Z,97696.50
2023-01-23T03:25:44.691Z,97675.03
2023-01-23T03:28:28.993Z,97730.81
2023-01-23T03:30:57.412Z,97709.25
2023-01-23T03:33:25.847Z,97716.41
2023-01-23T03:35:54.081Z,97707.59
2023-01-23T03:38:22.933Z,97713.75
2023-01-23T03:41:14.756Z,97734.53
2023-01-23T03:43:44.743Z,97737.03
2023-01-23T03:46:13.679Z,97713.81
2023-01-23T03:48:41.914Z,97742.41
2023-01-23T03:51:10.297Z,97731.22
2023-01-23T03:53:38.776Z,97738.78
2023-01-23T03:56:07.993Z,97750.81
2023-01-23T03:58:36.280Z,97709.25
2023-01-23T04:01:09.569Z,97689.53
2023-01-23T04:03:40.691Z,97724.19
2023-01-23T04:06:09.275Z,97753.19
2023-01-23T04:08:38.151Z,97721.91
2023-01-23T04:11:09.334Z,97760.91
2023-01-23T04:13:40.014Z,97719.91
2023-01-23T04:16:09.935Z,97759.50
2023-01-23T04:18:38.186Z,97815.53
2023-01-23T04:21:07.353Z,97789.47
2023-01-23T04:23:35.680Z,97764.22
2023-01-23T04:26:04.422Z,97744.81
2023-01-23T04:28:32.830Z,97765.06
2023-01-23T04:31:01.677Z,97822.84
2023-01-23T04:33:34.062Z,97752.34
2023-01-23T04:36:06.375Z,97779.75
2023-01-23T04:38:37.006Z,97764.44
2023-01-23T04:41:26.505Z,97798.94
2023-01-23T04:44:20.089Z,97784.09
2023-01-23T04:47:07.005Z,97786.63
2023-01-23T04:49:37.440Z,97772.09
2023-01-23T04:52:06.389Z,97779.47
2023-01-23T04:54:38.895Z,97764.09
2023-01-23T04:57:07.221Z,97750.38
2023-01-23T04:59:36.581Z,97765.00
2023-01-23T05:02:30.631Z,97775.03
2023-01-23T05:05:00.705Z,97791.72
2023-01-23T05:07:30.236Z,97731.38
2023-01-23T05:10:09.609Z,97731.50
2023-01-23T05:12:38.461Z,97777.03
2023-01-23T05:15:08.114Z,97743.97
2023-01-23T05:17:39.970Z,97762.13
2023-01-23T05:20:11.690Z,97741.84
2023-01-23T05:22:52.209Z,97739.75
2023-01-23T05:25:24.728Z,97722.28
2023-01-23T05:27:54.542Z,97742.53
2023-01-23T05:30:24.426Z,97796.69
2023-01-23T05:32:57.921Z,97750.94
2023-01-23T05:35:28.368Z,97792.91
2023-01-23T05:37:56.644Z,97784.03
2023-01-23T05:40:26.270Z,97854.06
2023-01-23T05:43:16.188Z,97956.63
2023-01-23T05:46:03.956Z,97804.50
2023-01-23T05:48:58.610Z,97822.16
2023-01-23T05:51:32.342Z,97772.91
2023-01-23T05:54:02.733Z,97811.16
2023-01-23T05:56:31.487Z,97816.81
2023-01-23T05:59:18.420Z,97849.97
2023-01-23T06:02:03.950Z,97795.84
2023-01-23T06:04:41.511Z,97866.59
2023-01-23T06:07:21.878Z,97838.09
2023-01-23T06:09:53.536Z,97822.25
2023-01-23T06:12:21.719Z,97745.91
2023-01-23T06:14:50.294Z,97873.06
2023-01-23T06:17:18.749Z,97846.19
2023-01-23T06:19:46.970Z,97853.31
2023-01-23T06:22:16.481Z,97815.28
2023-01-23T06:25:03.729Z,97856.97
2023-01-23T06:27:31.979Z,97893.22
2023-01-23T06:30:04.667Z,97813.25
2023-01-23T06:32:35.778Z,97866.88
2023-01-23T06:35:06.844Z,97829.41
2023-01-23T06:37:39.015Z,97877.44
2023-01-23T06:40:13.174Z,97902.19
2023-01-23T06:42:44.827Z,97880.97
2023-01-23T06:45:13.784Z,97840.75
2023-01-23T06:47:42.019Z,97885.03
2023-01-23T06:50:11.826Z,97866.88
2023-01-23T06:52:40.669Z,97887.56
2023-01-23T06:55:13.197Z,97851.50
2023-01-23T06:57:42.823Z,97920.31
2023-01-23T07:00:13.695Z,97909.84
2023-01-23T07:02:44.617Z,97908.84
2023-01-23T07:05:39.519Z,97853.50
2023-01-23T07:08:08.564Z,97878.84
2023-01-23T07:10:38.874Z,97916.94
2023-01-23T07:13:07.487Z,97944.06
2023-01-23T07:15:35.910Z,97918.31
2023-01-23T07:18:04.663Z,97919.19
2023-01-23T07:20:33.043Z,97962.50
2023-01-23T07:23:04.758Z,97941.56
2023-01-23T07:25:32.993Z,97946.19
2023-01-23T07:28:02.547Z,97932.03
2023-01-23T07:30:30.701Z,97915.13
2023-01-23T07:32:59.125Z,97939.97
2023-01-23T07:35:28.496Z,97947.66
2023-01-23T07:37:57.092Z,97849.94
2023-01-23T07:40:25.581Z,97940.94
2023-01-23T07:42:53.703Z,97870.31
2023-01-23T07:45:23.247Z,97936.16
2023-01-23T07:47:51.397Z,97919.94
2023-01-23T07:50:19.907Z,97945.66
2023-01-23T07:52:48.430Z,97935.78
2023-01-23T07:55:16.655Z,97937.25
2023-01-23T07:57:44.827Z,97951.72
2023-01-23T08:00:13.912Z,97887.47
2023-01-23T08:02:43.430Z,97942.31
2023-01-23T08:05:11.796Z,97985.25
2023-01-23T08:07:40.060Z,97927.94
2023-01-23T08:10:09.844Z,97879.44
2023-01-23T08:12:38.024Z,97956.78
2023-01-23T08:15:07.976Z,97941.78
2023-01-23T08:17:36.490Z,97929.88
2023-01-23T08:20:07.427Z,97930.72
2023-01-23T08:22:37.308Z,97945.66
2023-01-23T08:25:06.996Z,97930.28
2023-01-23T08:27:35.192Z,97898.56
2023-01-23T08:30:03.508Z,97911.06
2023-01-23T08:32:31.702Z,97912.28
2023-01-23T08:34:59.931Z,97851.22
2023-01-23T08:37:29.643Z,97957.06
2023-01-23T08:39:57.815Z,97901.03
2023-01-23T08:42:25.978Z,97902.44
2023-01-23T08:44:54.170Z,97929.13
2023-01-23T08:47:22.758Z,97961.75
2023-01-23T08:49:50.967Z,97902.72
2023-01-23T08:52:19.139Z,97910.84
2023-01-23T08:54:48.628Z,97943.31
2023-01-23T08:57:16.762Z,97936.19
2023-01-23T08:59:45.614Z,97891.56
2023-01-23T09:02:14.191Z,97944.75
2023-01-23T09:04:42.464Z,97937.06
2023-01-23T09:07:11.418Z,97904.47
2023-01-23T09:09:39.578Z,97885.97
2023-01-23T09:12:09.283Z,97951.19
2023-01-23T09:14:37.455Z,97945.00
2023-01-23T09:17:06.431Z,97922.22
2023-01-23T09:19:35.459Z,97942.53
2023-01-23T09:22:03.965Z,97969.59
2023-01-23T09:24:32.108Z,97947.13
2023-01-23T09:27:00.387Z,97935.13
2023-01-23T09:29:30.257Z,97954.63
2023-01-23T09:32:00.983Z,97941.84
2023-01-23T09:34:54.867Z,97915.47
2023-01-23T09:37:23.118Z,97961.13
2023-01-23T09:39:51.290Z,97881.56
2023-01-23T09:42:30.715Z,97958.78
2023-01-23T09:45:05.316Z,97909.63
2023-01-23T09:47:40.548Z,97876.59
2023-01-23T09:50:16.743Z,97942.47
2023-01-23T09:52:54.213Z,97964.25
2023-01-23T09:55:33.834Z,97938.47
2023-01-23T09:58:03.473Z,97906.50
2023-01-23T10:00:36.367Z,97918.78
2023-01-23T10:03:15.538Z,97932.63
2023-01-23T10:05:58.209Z,97883.53
2023-01-23T10:08:35.126Z,97948.28
2023-01-23T10:11:08.314Z,97910.34
2023-01-23T10:14:08.230Z,97913.88
2023-01-23T10:16:55.777Z,97896.34
2023-01-23T10:19:56.288Z,97865.28
2023-01-23T10:22:37.674Z,97905.03
2023-01-23T10:25:14.312Z,97928.28
2023-01-23T10:27:48.409Z,97876.94
2023-01-23T10:30:28.335Z,97834.06
2023-01-23T10:33:02.624Z,97913.72
2023-01-23T10:35:37.997Z,97866.06
2023-01-23T10:38:14.877Z,97856.03
2023-01-23T10:41:00.884Z,97923.59
2023-01-23T10:43:29.079Z,97902.94
2023-01-23T10:45:57.376Z,97896.06
2023-01-23T10:48:41.406Z,97868.47
2023-01-23T10:51:35.602Z,97898.22
2023-01-23T10:54:30.940Z,97914.84
2023-01-23T10:57:02.317Z,97904.34
2023-01-23T10:59:35.108Z,97869.16
2023-01-23T11:02:20.979Z,97939.47
2023-01-23T11:04:52.712Z,97924.78
2023-01-23T11:07:23.655Z,97895.75
2023-01-23T11:09:56.417Z,97900.78
2023-01-23T11:12:27.963Z,97935.41
2023-01-23T11:15:22.265Z,97878.28
2023-01-23T11:17:53.337Z,97881.47
2023-01-23T11:20:31.830Z,97914.78
2023-01-23T11:23:06.683Z,97923.97
2023-01-23T11:25:38.440Z,97892.94
2023-01-23T11:28:23.766Z,97860.19
2023-01-23T11:31:12.333Z,97871.50
2023-01-23T11:33:47.800Z,97899.13
2023-01-23T11:36:43.845Z,97926.25
2023-01-23T11:39:22.301Z,97866.31
2023-01-23T11:41:50.546Z,97866.91
2023-01-23T11:44:22.634Z,97818.50
2023-01-23T11:47:30.759Z,97875.16
2023-01-23T11:50:19.519Z,97883.38
2023-01-23T11:52:59.244Z,97897.13
2023-01-23T11:56:06.385Z,97902.50
2023-01-23T11:59:17.978Z,97897.00
2023-01-23T12:02:14.683Z,97950.78
2023-01-23T12:05:18.536Z,97902.84
2023-01-23T12:08:01.711Z,97894.84
2023-01-23T12:10:37.693Z,97873.78
2023-01-23T12:13:24.503Z,97816.06
2023-01-23T12:16:11.330Z,97851.69
2023-01-23T12:18:48.120Z,97855.81
2023-01-23T12:21:20.406Z,97896.88
2023-01-23T12:24:10.434Z,97868.91
2023-01-23T12:26:54.864Z,97888.00
2023-01-23T12:29:45.709Z,97854.13
2023-01-23T12:32:36.502Z,97797.22
2023-01-23T12:35:28.228Z,97854.44
2023-01-23T12:38:14.235Z,97816.47
2023-01-23T12:40:48.975Z,97823.00
2023-01-23T12:43:34.468Z,97845.06
2023-01-23T12:46:07.382Z,97838.66
2023-01-23T12:48:43.185Z,97849.25
2023-01-23T12:51:19.827Z,97801.03
2023-01-23T12:53:54.900Z,97776.31
2023-01-23T12:56:30.885Z,97819.03
2023-01-23T12:59:14.205Z,97737.84
2023-01-23T13:01:57.095Z,97778.38
2023-01-23T13:04:58.304Z,97781.94
2023-01-23T13:07:48.452Z,97758.59
2023-01-23T13:10:58.773Z,97734.66
2023-01-23T13:13:28.938Z,97644.50
2023-01-23T13:16:10.507Z,97792.03
2023-01-23T13:18:53.621Z,97846.50
2023-01-23T13:21:39.531Z,97801.88
2023-01-23T13:24:56.841Z,97799.44
2023-01-23T13:27:46.168Z,97730.34
2023-01-23T13:30:42.486Z,97784.88
2023-01-23T13:33:55.323Z,97766.09
2023-01-23T13:36:37.689Z,97793.84
2023-01-23T13:39:24.247Z,97802.66
2023-01-23T13:42:43.890Z,97801.03
2023-01-23T13:45:32.137Z,97786.31
2023-01-23T14:22:08.871Z,97794.16
2023-01-23T14:24:45.482Z,97786.25
2023-01-23T14:27:29.464Z,97720.69
2023-01-23T14:30:00.398Z,97816.31
2023-01-23T14:32:34.742Z,97787.47
2023-01-23T14:35:02.989Z,97767.72
2023-01-23T14:37:39.876Z,97751.16
2023-01-23T14:40:25.892Z,97774.56
2023-01-23T14:43:02.931Z,97744.25
2023-01-23T14:45:33.816Z,97786.00
2023-01-23T14:48:07.252Z,97743.06
2023-01-23T14:50:36.044Z,97733.94
2023-01-23T14:53:08.118Z,97807.28
2023-01-23T14:55:40.983Z,97780.28
2023-01-23T14:58:16.395Z,97774.03
2023-01-23T15:00:47.049Z,97765.72
2023-01-23T15:03:36.309Z,97785.47
2023-01-23T15:06:11.272Z,97767.78
2023-01-23T15:08:41.541Z,97741.72
2023-01-23T15:11:13.311Z,97764.34
2023-01-23T15:13:50.314Z,97779.69
2023-01-23T15:16:23.987Z,97579.78
2023-01-23T15:19:01.570Z,97717.31
2023-01-23T15:21:35.055Z,97731.38
2023-01-23T15:24:28.229Z,97745.66
2023-01-23T15:27:06.264Z,97749.72
2023-01-23T15:29:36.644Z,97787.84
2023-01-23T15:32:17.235Z,97710.94
2023-01-23T15:34:55.226Z,97685.22
2023-01-23T15:37:26.337Z,97726.47
2023-01-23T15:40:00.761Z,97751.34
2023-01-23T15:42:32.182Z,97762.06
2023-01-23T15:45:01.981Z,97737.44
2023-01-23T15:47:31.086Z,97723.75
2023-01-23T15:50:01.579Z,97753.69
2023-01-23T15:52:45.543Z,97748.50
2023-01-23T15:55:15.597Z,97751.19
2023-01-23T15:57:43.990Z,97769.00
2023-01-23T16:00:17.597Z,97740.03
2023-01-23T16:02:55.660Z,97750.03
2023-01-23T16:05:28.241Z,97746.97
2023-01-23T16:07:57.752Z,97769.00
2023-01-23T16:10:30.675Z,97736.06
2023-01-23T16:12:59.571Z,97705.22
2023-01-23T16:15:30.250Z,97764.75
2023-01-23T16:17:58.837Z,97716.66
2023-01-23T16:20:30.277Z,97733.03
2023-01-23T16:23:11.746Z,97797.66
2023-01-23T16:25:45.739Z,97662.84
2023-01-23T16:28:15.087Z,97755.88
2023-01-23T16:30:43.791Z,97767.63
2023-01-23T16:33:12.094Z,97724.66
2023-01-23T16:35:40.846Z,97753.06
2023-01-23T16:38:15.930Z,97784.03
2023-01-23T16:40:45.447Z,97763.59
2023-01-23T16:43:13.657Z,97779.06
2023-01-23T16:45:41.787Z,97784.38
2023-01-23T16:48:15.445Z,97788.78
2023-01-23T16:50:55.701Z,97802.38
2023-01-23T16:53:27.683Z,97677.34
2023-01-23T16:55:59.511Z,97777.19
2023-01-23T16:58:34.325Z,97783.13
2023-01-23T17:01:06.359Z,97803.38
2023-01-23T17:03:37.806Z,97775.09
2023-01-23T17:06:06.781Z,97800.78
2023-01-23T17:08:38.285Z,97815.50
2023-01-23T17:11:08.742Z,97760.34
2023-01-23T17:13:37.100Z,97834.28
2023-01-23T17:16:18.666Z,97799.03
2023-01-23T17:18:53.869Z,97825.72
2023-01-23T17:21:24.593Z,97834.69
2023-01-23T17:23:53.326Z,97819.63
2023-01-23T17:26:22.902Z,97813.69
2023-01-23T17:28:51.339Z,97792.72
2023-01-23T17:31:24.720Z,97831.59
2023-01-23T17:33:53.545Z,97837.63
2023-01-23T17:36:21.749Z,97822.22
2023-01-23T17:38:50.292Z,97845.38
2023-01-23T17:41:18.650Z,97851.72
2023-01-23T17:43:48.502Z,97851.47
2023-01-23T17:46:27.281Z,97828.63
2023-01-23T17:48:56.578Z,97843.22
2023-01-23T17:51:27.063Z,97808.34
2023-01-23T17:53:56.091Z,97849.25
2023-01-23T17:56:24.623Z,97824.34
2023-01-23T17:58:54.134Z,97823.22
2023-01-23T18:01:25.968Z,97841.03
2023-01-23T18:03:54.893Z,97849.66
2023-01-23T18:06:23.046Z,97858.16
2023-01-23T18:08:51.343Z,97840.81
2023-01-23T18:11:22.501Z,97805.66
2023-01-23T18:14:15.292Z,97836.59
2023-01-23T18:16:48.119Z,97910.88
2023-01-23T18:19:18.957Z,97869.44
2023-01-23T18:21:50.831Z,97817.94
2023-01-23T18:24:26.923Z,97885.06
2023-01-23T18:27:01.923Z,97878.38
2023-01-23T18:29:46.652Z,97809.88
2023-01-23T18:32:47.891Z,97833.38
2023-01-23T18:35:31.862Z,97855.25
2023-01-23T18:38:11.861Z,97888.41
2023-01-23T18:40:51.328Z,97883.69
2023-01-23T18:43:35.559Z,97862.81
2023-01-23T18:46:06.070Z,97742.41
2023-01-23T18:48:36.198Z,97870.41
2023-01-23T18:51:21.918Z,97844.91
2023-01-23T18:54:02.029Z,97842.19
2023-01-23T18:56:42.206Z,97899.47
2023-01-23T18:59:20.545Z,97881.44
2023-01-23T19:01:54.967Z,97877.22
2023-01-23T19:04:40.913Z,97887.16
2023-01-23T19:07:18.401Z,97853.03
2023-01-23T19:09:48.369Z,97826.66
2023-01-23T19:12:28.678Z,97867.09
2023-01-23T19:15:11.796Z,97883.88
2023-01-23T19:17:49.042Z,97876.25
2023-01-23T19:20:40.691Z,97839.16
2023-01-23T19:23:22.999Z,97863.72
2023-01-23T19:25:51.665Z,97861.28
2023-01-23T19:28:20.627Z,97921.66
2023-01-23T19:30:49.520Z,97799.03
2023-01-23T19:33:20.994Z,97866.78
2023-01-23T19:35:51.265Z,97863.72
2023-01-23T19:38:19.437Z,97865.78
2023-01-23T19:40:47.724Z,97905.69
2023-01-23T19:43:17.078Z,97902.91
2023-01-23T19:45:46.008Z,97937.75
2023-01-23T19:48:15.404Z,97895.16
2023-01-23T19:50:44.940Z,97884.78
2023-01-23T19:53:14.872Z,97888.44
2023-01-23T19:55:43.206Z,97883.94
2023-01-23T19:58:11.473Z,97883.56
2023-01-23T20:00:39.709Z,97880.78
2023-01-23T20:03:07.904Z,97856.56
2023-01-23T20:05:36.080Z,97839.53
2023-01-23T20:08:06.133Z,97837.63
2023-01-23T20:10:35.615Z,97873.25
2023-01-23T20:13:03.831Z,97860.50
2023-01-23T20:15:33.747Z,97864.09
2023-01-23T20:18:01.904Z,97901.22
2023-01-23T20:20:30.112Z,97919.38
2023-01-23T20:22:58.294Z,97910.44
2023-01-23T20:25:27.843Z,97877.09
2023-01-23T20:27:56.049Z,97879.56
2023-01-23T20:30:24.759Z,97870.09
2023-01-23T20:32:53.205Z,97802.88
2023-01-23T20:35:21.624Z,97849.25
2023-01-23T20:37:49.814Z,97901.81
2023-01-23T20:40:18.504Z,97934.41
2023-01-23T20:42:48.170Z,97907.66
2023-01-23T20:45:16.531Z,97802.53
2023-01-23T20:47:44.766Z,97917.88
2023-01-23T20:50:13.299Z,97884.97
2023-01-23T20:52:59.335Z,97916.75
2023-01-23T20:55:27.520Z,97915.28
2023-01-23T20:58:14.867Z,97914.34
2023-01-23T21:00:44.740Z,97953.50
2023-01-23T21:03:14.723Z,97893.44
2023-01-23T21:05:48.407Z,97929.66
2023-01-23T21:08:17.999Z,97892.41
2023-01-23T21:10:46.160Z,97955.38
2023-01-23T21:13:15.941Z,97955.28
2023-01-23T21:15:44.304Z,97916.97
2023-01-23T21:18:12.515Z,97953.84
2023-01-23T21:20:40.763Z,97914.03
2023-01-23T21:23:08.925Z,97964.53
2023-01-23T21:25:37.600Z,97892.94
2023-01-23T21:28:05.960Z,97944.09
2023-01-23T21:30:35.928Z,97873.31
2023-01-23T21:33:04.700Z,97937.38
2023-01-23T21:35:33.121Z,97933.28
2023-01-23T21:38:02.007Z,97910.06
2023-01-23T21:40:30.216Z,97927.00
2023-01-23T21:42:58.409Z,97947.16
2023-01-23T21:45:26.983Z,97915.91
2023-01-23T21:47:56.631Z,97956.34
2023-01-23T21:50:24.780Z,98016.84
2023-01-23T21:52:52.975Z,97962.00
2023-01-23T21:55:21.462Z,97950.50
2023-01-23T21:57:51.041Z,97944.63
2023-01-23T22:00:37.682Z,97918.56
2023-01-23T22:03:07.234Z,97959.41
2023-01-23T22:05:36.524Z,97813.19
2023-01-23T22:08:05.831Z,97945.47
2023-01-23T22:10:33.984Z,97936.63
2023-01-23T22:13:02.525Z,97971.25
2023-01-23T22:15:30.720Z,97945.59
2023-01-23T22:17:58.905Z,97983.94
2023-01-23T22:20:28.437Z,97939.78
2023-01-23T22:22:56.991Z,97907.97
2023-01-23T22:25:25.168Z,97922.63
2023-01-23T22:27:53.348Z,97933.28
2023-01-23T22:30:21.746Z,97951.91
2023-01-23T22:32:49.976Z,97941.38
2023-01-23T22:35:18.474Z,97990.59
2023-01-23T22:37:48.052Z,97947.09
2023-01-23T22:40:16.405Z,97975.34
2023-01-23T22:42:44.614Z,97955.25
2023-01-23T22:45:13.255Z,97926.56
2023-01-23T22:47:41.517Z,97933.88
2023-01-23T22:50:11.716Z,97923.22
2023-01-23T22:52:41.438Z,97954.16
2023-01-23T22:55:11.763Z,97947.34
2023-01-23T22:57:40.319Z,97924.88
2023-01-23T23:00:13.855Z,97989.91
2023-01-23T23:02:51.299Z,97879.19
2023-01-23T23:05:19.825Z,97965.41
2023-01-23T23:07:48.162Z,97963.00
2023-01-23T23:10:17.844Z,97957.66
2023-01-23T23:12:46.011Z,97941.91
2023-01-23T23:15:15.937Z,97950.81
2023-01-23T23:17:44.097Z,97949.84
2023-01-23T23:20:13.620Z,97923.22
2023-01-23T23:22:43.800Z,97938.22
2023-01-23T23:25:12.181Z,97942.84
2023-01-23T23:27:41.747Z,97953.28
2023-01-23T23:30:11.674Z,97939.59
2023-01-23T23:32:40.031Z,97939.75
2023-01-23T23:35:10.263Z,97931.09
2023-01-23T23:37:39.101Z,97943.75
2023-01-23T23:40:09.116Z,97954.97
2023-01-23T23:42:37.356Z,97933.66
2023-01-23T23:45:08.948Z,97944.78
2023-01-23T23:47:37.113Z,97940.25
2023-01-23T23:50:06.147Z,97932.59
2023-01-23T23:52:36.011Z,97968.00
2023-01-23T23:55:05.925Z,97930.00
2023-01-23T23:57:34.119Z,97959.38
